Time;durP1;ratioP1;P1;durP2;ratioP2;P2;SDS_P1;SDS_P2;PMS_P1;PMS_P2;Temp;Humidity;BMP_temperature;BMP_pressure;BME280_temperature;BME280_humidity;BME280_pressure;Samples;Min_cycle;Max_cycle;Signal;HPM_P1;HPM_P2
2021/11/29 00:00:37;;;;;;;6.72;3.87;;;6.30;72.20;;;;;;2578239;53;21865;-72
2021/11/29 00:03:08;;;;;;;6.20;3.60;;;6.30;72.20;;;;;;2323274;54;20949;-69
2021/11/29 00:05:35;;;;;;;7.05;3.85;;;6.30;72.20;;;;;;2331298;54;20941;-71
2021/11/29 00:08:02;;;;;;;6.78;3.70;;;6.30;72.30;;;;;;2331586;54;20972;-70
2021/11/29 00:10:30;;;;;;;6.78;3.28;;;6.30;72.30;;;;;;2341961;54;20905;-70
2021/11/29 00:12:57;;;;;;;6.85;3.70;;;6.30;72.20;;;;;;2345716;54;20953;-71
2021/11/29 00:15:24;;;;;;;6.05;3.33;;;6.30;72.20;;;;;;2588113;53;20997;-73
2021/11/29 00:17:50;;;;;;;7.93;3.70;;;6.30;72.20;;;;;;2335195;54;20957;-72
2021/11/29 00:20:18;;;;;;;6.93;3.58;;;6.30;72.20;;;;;;2319900;54;21066;-70
2021/11/29 00:22:45;;;;;;;6.87;3.80;;;6.30;72.20;;;;;;2324166;54;20924;-71
2021/11/29 00:25:12;;;;;;;7.62;3.55;;;6.30;72.20;;;;;;2587731;53;21379;-72
2021/11/29 00:27:39;;;;;;;9.23;4.18;;;6.30;72.20;;;;;;2329284;54;20988;-73
2021/11/29 00:30:07;;;;;;;7.65;4.25;;;6.30;72.10;;;;;;2331000;54;21051;-69
2021/11/29 00:32:33;;;;;;;7.55;4.05;;;6.30;72.10;;;;;;2321692;54;20937;-73
2021/11/29 00:34:59;;;;;;;8.55;4.43;;;6.20;72.00;;;;;;2341964;54;21509;-70
2021/11/29 00:37:26;;;;;;;7.47;3.97;;;6.20;71.90;;;;;;2587950;53;21040;-73
2021/11/29 00:39:52;;;;;;;6.82;3.80;;;6.40;72.00;;;;;;2328376;54;20934;-70
2021/11/29 00:42:20;;;;;;;7.70;3.78;;;6.20;72.50;;;;;;2318321;54;20958;-70
2021/11/29 00:44:46;;;;;;;7.28;3.83;;;6.20;71.80;;;;;;2331789;54;20949;-69
2021/11/29 00:47:12;;;;;;;7.35;4.05;;;6.20;71.80;;;;;;2586831;53;21069;-69
2021/11/29 00:49:38;;;;;;;6.90;3.22;;;6.20;71.80;;;;;;2318919;54;20964;-69
2021/11/29 00:52:05;;;;;;;7.05;3.70;;;6.20;71.80;;;;;;2554964;53;20947;-71
2021/11/29 00:54:34;;;;;;;6.62;3.50;;;6.20;71.70;;;;;;2341628;54;20957;-72
2021/11/29 00:57:03;;;;;;;7.37;3.45;;;6.10;71.70;;;;;;2330408;54;20954;-72
2021/11/29 00:59:30;;;;;;;7.20;3.35;;;6.10;71.70;;;;;;2577367;53;20937;-70
2021/11/29 01:01:56;;;;;;;6.70;3.65;;;6.10;71.70;;;;;;2566715;53;20942;-69
2021/11/29 01:04:22;;;;;;;7.03;3.55;;;6.10;71.80;;;;;;2332720;54;20957;-71
2021/11/29 01:06:49;;;;;;;8.85;3.78;;;6.10;71.80;;;;;;2341499;54;20945;-71
2021/11/29 01:09:18;;;;;;;6.65;3.83;;;6.20;72.00;;;;;;2344836;54;20981;-71
2021/11/29 01:11:45;;;;;;;6.43;3.60;;;6.10;71.70;;;;;;2319331;54;20984;-72
2021/11/29 01:14:11;;;;;;;6.85;3.97;;;6.10;71.70;;;;;;2322606;54;21430;-73
2021/11/29 01:16:38;;;;;;;7.10;4.00;;;6.00;71.30;;;;;;2536268;54;21023;-72
2021/11/29 01:19:04;;;;;;;6.90;3.70;;;6.00;70.90;;;;;;2554139;53;20909;-69
2021/11/29 01:21:30;;;;;;;5.55;3.22;;;6.00;70.60;;;;;;2586198;53;20957;-70
2021/11/29 01:23:57;;;;;;;6.47;3.25;;;5.90;70.20;;;;;;2341834;54;20996;-71
2021/11/29 01:26:26;;;;;;;6.00;3.30;;;5.90;70.10;;;;;;2552484;53;20937;-69
2021/11/29 01:28:52;;;;;;;6.62;3.62;;;5.80;69.80;;;;;;2581966;53;20973;-70
2021/11/29 01:31:19;;;;;;;6.90;3.50;;;5.70;69.60;;;;;;2579489;53;21820;-70
2021/11/29 01:33:45;;;;;;;8.32;4.07;;;5.70;69.60;;;;;;2319266;54;20942;-71
2021/11/29 01:36:11;;;;;;;8.23;3.87;;;5.60;69.50;;;;;;2312199;54;22261;-70
2021/11/29 01:38:38;;;;;;;7.97;4.03;;;5.50;69.30;;;;;;2318027;54;21418;-70
2021/11/29 01:41:05;;;;;;;6.72;3.37;;;5.50;69.30;;;;;;2328284;54;21475;-72
2021/11/29 01:43:31;;;;;;;7.32;4.05;;;5.40;69.30;;;;;;2542253;53;21833;-73
2021/11/29 01:45:57;;;;;;;9.13;4.40;;;5.30;69.10;;;;;;2322398;54;22771;-70
2021/11/29 01:48:24;;;;;;;9.50;4.80;;;5.30;69.10;;;;;;2323434;54;20955;-73
2021/11/29 01:50:54;;;;;;;8.15;4.60;;;5.20;69.10;;;;;;2563103;53;20907;-72
2021/11/29 01:53:24;;;;;;;11.00;5.37;;;5.10;69.20;;;;;;2580998;53;21771;-73
2021/11/29 01:55:51;;;;;;;12.75;6.40;;;5.10;69.20;;;;;;2318672;54;20942;-73
2021/11/29 01:58:19;;;;;;;14.30;6.65;;;5.00;69.30;;;;;;2341535;54;20973;-70
2021/11/29 02:00:49;;;;;;;12.93;6.82;;;5.00;69.70;;;;;;2536003;54;20933;-70
2021/11/29 02:03:15;;;;;;;11.75;5.80;;;4.90;70.00;;;;;;2305053;55;20981;-70
2021/11/29 02:05:44;;;;;;;13.27;6.68;;;4.90;70.30;;;;;;2327515;54;20913;-69
2021/11/29 02:08:11;;;;;;;13.27;6.15;;;4.80;70.50;;;;;;2321132;54;21446;-70
2021/11/29 02:10:40;;;;;;;12.15;6.70;;;4.80;70.70;;;;;;2319968;54;20963;-73
2021/11/29 02:13:07;;;;;;;13.62;7.30;;;4.80;70.90;;;;;;2555648;53;21463;-70
2021/11/29 02:15:33;;;;;;;15.32;7.30;;;4.80;71.20;;;;;;2583209;53;20921;-69
2021/11/29 02:18:00;;;;;;;14.50;7.35;;;4.80;71.50;;;;;;2588052;53;21759;-71
2021/11/29 02:20:33;;;;;;;15.60;7.40;;;4.80;71.80;;;;;;2342000;54;21079;-73
2021/11/29 02:23:00;;;;;;;17.67;9.38;;;4.80;72.00;;;;;;2323671;54;21042;-70
2021/11/29 02:25:26;;;;;;;16.23;8.98;;;4.80;72.20;;;;;;2581370;53;21815;-70
2021/11/29 02:27:53;;;;;;;19.08;9.50;;;4.90;72.50;;;;;;2341699;54;20949;-69
2021/11/29 02:30:22;;;;;;;19.23;9.00;;;4.90;72.60;;;;;;2555454;53;20968;-71
2021/11/29 02:32:48;;;;;;;17.15;8.65;;;4.90;72.70;;;;;;2587849;53;21025;-72
2021/11/29 02:35:15;;;;;;;18.40;9.20;;;5.00;72.90;;;;;;2342305;54;20937;-71
2021/11/29 02:37:41;;;;;;;16.58;9.15;;;5.00;72.90;;;;;;2339929;54;20933;-70
2021/11/29 02:40:08;;;;;;;17.75;9.00;;;5.00;72.90;;;;;;2342012;54;20957;-72
2021/11/29 02:42:34;;;;;;;18.23;9.10;;;5.10;73.10;;;;;;2578289;53;21006;-70
2021/11/29 02:45:00;;;;;;;14.65;7.87;;;5.10;73.10;;;;;;2324735;54;20933;-72
2021/11/29 02:47:27;;;;;;;13.02;7.22;;;5.10;73.00;;;;;;2588189;53;21028;-71
2021/11/29 02:49:53;;;;;;;12.57;6.85;;;5.20;73.00;;;;;;2565779;53;20926;-72
2021/11/29 02:52:19;;;;;;;13.90;7.62;;;5.20;72.90;;;;;;2334481;54;20991;-71
2021/11/29 02:54:46;;;;;;;14.60;6.85;;;5.20;72.90;;;;;;2341604;54;21036;-70
2021/11/29 02:57:19;;;;;;;13.80;7.25;;;5.20;72.80;;;;;;2341929;54;21525;-73
2021/11/29 02:59:45;;;;;;;10.50;6.03;;;5.20;72.80;;;;;;2549497;54;21020;-72
2021/11/29 03:02:17;;;;;;;14.05;6.87;;;5.20;72.70;;;;;;2576060;53;21758;-70
2021/11/29 03:04:45;;;;;;;14.23;7.87;;;5.30;72.80;;;;;;2558054;53;21070;-72
2021/11/29 03:07:11;;;;;;;13.80;7.28;;;5.30;72.70;;;;;;2319818;54;21691;-74
2021/11/29 03:09:38;;;;;;;11.85;6.45;;;5.30;72.60;;;;;;2557346;53;21028;-72
2021/11/29 03:12:05;;;;;;;14.02;6.65;;;5.30;72.70;;;;;;2319938;54;21069;-71
2021/11/29 03:14:32;;;;;;;12.70;6.62;;;5.30;72.60;;;;;;2312683;54;21042;-73
2021/11/29 03:17:08;;;;;;;10.52;5.78;;;5.30;72.60;;;;;;2329495;54;20952;-70
2021/11/29 03:19:38;;;;;;;13.50;6.53;;;5.40;72.70;;;;;;2343102;54;20913;-72
2021/11/29 03:22:06;;;;;;;13.23;7.15;;;5.40;72.70;;;;;;2342000;54;21069;-73
2021/11/29 03:24:34;;;;;;;14.02;7.32;;;5.40;72.70;;;;;;2341407;54;21040;-71
2021/11/29 03:27:04;;;;;;;12.00;6.40;;;5.40;72.70;;;;;;2343496;54;21028;-73
2021/11/29 03:29:30;;;;;;;12.02;6.45;;;5.40;72.70;;;;;;2588139;53;20941;-70
2021/11/29 03:31:59;;;;;;;13.45;6.85;;;5.40;72.70;;;;;;2319131;54;21045;-71
2021/11/29 03:34:25;;;;;;;11.32;6.15;;;5.40;72.70;;;;;;2542968;54;21119;-69
2021/11/29 03:36:52;;;;;;;10.95;6.05;;;5.40;72.60;;;;;;2569226;53;20961;-71
2021/11/29 03:39:21;;;;;;;12.85;6.22;;;5.50;72.80;;;;;;2341523;54;20940;-69
2021/11/29 03:41:48;;;;;;;13.18;6.18;;;5.50;72.80;;;;;;2321953;54;20955;-73
2021/11/29 03:44:14;;;;;;;12.02;6.57;;;5.50;72.70;;;;;;2338311;54;20944;-74
2021/11/29 03:46:41;;;;;;;12.85;6.82;;;5.50;72.80;;;;;;2322577;54;21926;-73
2021/11/29 03:49:08;;;;;;;13.80;7.32;;;5.50;72.80;;;;;;2573400;53;21038;-73
2021/11/29 03:51:34;;;;;;;13.27;6.70;;;5.50;72.70;;;;;;2313925;54;21001;-70
2021/11/29 03:54:01;;;;;;;10.50;6.00;;;5.60;72.80;;;;;;2579933;53;20997;-71
2021/11/29 03:56:30;;;;;;;8.70;4.80;;;5.60;72.80;;;;;;2587400;53;21008;-72
2021/11/29 03:58:56;;;;;;;12.52;6.68;;;5.60;72.80;;;;;;2341696;54;20937;-73
2021/11/29 04:01:22;;;;;;;11.43;6.00;;;5.60;72.80;;;;;;2554696;53;21409;-69
2021/11/29 04:03:48;;;;;;;11.48;6.65;;;5.60;72.80;;;;;;2320022;54;21010;-72
2021/11/29 04:06:15;;;;;;;12.52;6.35;;;5.60;72.80;;;;;;2341486;54;20945;-74
2021/11/29 04:08:44;;;;;;;13.68;7.05;;;5.60;72.60;;;;;;2340358;54;20972;-72
2021/11/29 04:11:10;;;;;;;12.93;7.18;;;5.60;72.60;;;;;;2317353;54;20941;-72
2021/11/29 04:13:37;;;;;;;14.43;7.75;;;5.60;72.60;;;;;;2341474;54;20971;-72
2021/11/29 04:16:04;;;;;;;13.90;7.37;;;5.70;72.60;;;;;;2323008;54;20992;-71
2021/11/29 04:18:34;;;;;;;13.85;7.05;;;5.70;72.60;;;;;;2335363;54;20949;-70
2021/11/29 04:21:04;;;;;;;13.90;6.70;;;5.60;72.50;;;;;;2573537;53;20970;-72
2021/11/29 04:23:31;;;;;;;11.63;6.30;;;5.70;72.60;;;;;;2328734;54;21045;-69
2021/11/29 04:26:00;;;;;;;10.63;5.80;;;5.70;72.60;;;;;;2324849;54;21737;-71
2021/11/29 04:28:29;;;;;;;12.30;6.45;;;5.70;72.60;;;;;;2329665;54;21021;-70
2021/11/29 04:30:55;;;;;;;14.32;7.40;;;5.70;72.60;;;;;;2563848;53;21053;-73
2021/11/29 04:33:21;;;;;;;12.55;6.60;;;5.70;72.50;;;;;;2325247;54;20968;-72
2021/11/29 04:35:49;;;;;;;12.50;6.65;;;5.70;72.50;;;;;;2568143;53;21736;-74
2021/11/29 04:38:17;;;;;;;14.90;7.87;;;5.70;73.30;;;;;;2331706;54;20909;-71
2021/11/29 04:40:44;;;;;;;14.13;7.18;;;5.70;72.60;;;;;;2335077;54;20996;-74
2021/11/29 04:43:44;;;;;;;13.77;6.97;;;5.70;72.60;;;;;;2335265;54;21100;-71
2021/11/29 04:46:11;;;;;;;12.77;6.70;;;5.70;72.50;;;;;;2555855;53;20945;-73
2021/11/29 04:48:38;;;;;;;14.68;7.57;;;5.70;72.60;;;;;;2341844;54;20929;-70
2021/11/29 04:51:06;;;;;;;13.40;7.25;;;5.70;72.50;;;;;;2343199;54;21076;-70
2021/11/29 04:53:32;;;;;;;12.30;6.25;;;5.70;72.40;;;;;;2562033;53;20966;-70
2021/11/29 04:55:58;;;;;;;15.07;7.72;;;5.50;72.10;;;;;;2553526;53;20938;-69
2021/11/29 04:59:08;;;;;;;15.60;7.45;;;5.70;72.30;;;;;;2555261;53;20939;-69
2021/11/29 05:05:03;;;;;;;16.73;7.35;;;5.70;72.20;;;;;;2587461;53;21032;-73
2021/11/29 05:07:30;;;;;;;16.95;8.35;;;5.70;72.20;;;;;;2587503;53;21449;-70
2021/11/29 05:09:56;;;;;;;14.82;7.80;;;5.70;72.30;;;;;;2341577;54;21697;-73
2021/11/29 05:12:23;;;;;;;19.30;8.77;;;5.70;72.30;;;;;;2315759;54;20957;-71
2021/11/29 05:14:49;;;;;;;19.45;8.48;;;5.70;72.40;;;;;;2559694;53;21428;-71
2021/11/29 05:17:16;;;;;;;16.35;8.32;;;5.70;72.50;;;;;;2568797;53;21027;-73
2021/11/29 05:19:44;;;;;;;17.02;8.05;;;5.70;72.50;;;;;;2566034;53;20953;-74
2021/11/29 05:22:11;;;;;;;15.73;8.05;;;5.70;72.40;;;;;;2561915;53;20974;-71
2021/11/29 05:24:37;;;;;;;17.00;7.55;;;5.70;72.30;;;;;;2337273;54;21308;-71
2021/11/29 05:27:48;;;;;;;13.00;6.93;;;5.70;72.40;;;;;;2550444;53;21010;-71
2021/11/29 05:30:14;;;;;;;16.45;8.27;;;5.70;72.30;;;;;;2332024;54;20963;-71
2021/11/29 05:32:40;;;;;;;14.65;7.60;;;5.80;72.60;;;;;;2555506;53;20926;-72
2021/11/29 05:35:44;;;;;;;13.62;7.03;;;5.80;72.60;;;;;;2577382;53;20988;-70
2021/11/29 05:38:10;;;;;;;13.88;7.80;;;5.80;72.50;;;;;;2317482;54;21005;-71
2021/11/29 05:40:37;;;;;;;14.90;7.50;;;5.80;72.60;;;;;;2313996;54;20986;-69
2021/11/29 05:43:43;;;;;;;13.13;6.97;;;5.80;72.60;;;;;;2322035;54;21049;-72
2021/11/29 05:46:10;;;;;;;15.23;7.82;;;5.80;72.40;;;;;;2563524;53;20964;-70
2021/11/29 05:48:38;;;;;;;15.55;7.62;;;5.80;72.50;;;;;;2321946;54;20941;-69
2021/11/29 05:51:06;;;;;;;13.35;7.18;;;5.80;72.50;;;;;;2546276;54;20977;-71
2021/11/29 05:53:33;;;;;;;15.63;7.80;;;5.80;72.50;;;;;;2552764;53;21001;-73
2021/11/29 05:56:03;;;;;;;13.15;6.53;;;5.80;72.50;;;;;;2340393;54;20983;-73
2021/11/29 05:58:31;;;;;;;16.08;8.10;;;5.80;72.50;;;;;;2304773;55;21084;-70
2021/11/29 06:01:00;;;;;;;16.65;7.95;;;5.80;72.40;;;;;;2325477;54;21021;-69
2021/11/29 06:03:29;;;;;;;15.07;7.93;;;5.80;72.30;;;;;;2327681;54;21548;-72
2021/11/29 06:05:55;;;;;;;16.02;8.05;;;5.80;72.30;;;;;;2583341;53;20933;-72
2021/11/29 06:08:24;;;;;;;14.85;7.53;;;5.80;72.30;;;;;;2549223;54;21032;-72
2021/11/29 06:10:50;;;;;;;17.90;8.65;;;5.80;72.30;;;;;;2314791;54;21003;-72
2021/11/29 06:13:17;;;;;;;17.35;8.43;;;5.80;72.30;;;;;;2304295;54;20969;-72
2021/11/29 06:15:45;;;;;;;16.27;8.20;;;5.80;72.30;;;;;;2547792;54;20971;-72
2021/11/29 06:18:11;;;;;;;15.95;8.38;;;5.80;72.30;;;;;;2530761;54;21067;-72
2021/11/29 06:20:38;;;;;;;16.42;8.52;;;5.80;72.30;;;;;;2329165;54;21503;-73
2021/11/29 06:23:04;;;;;;;18.15;8.95;;;5.80;72.30;;;;;;2319344;54;21016;-70
2021/11/29 06:25:31;;;;;;;20.15;9.40;;;5.80;72.30;;;;;;2321887;54;20945;-70
2021/11/29 06:27:57;;;;;;;17.35;8.88;;;5.90;72.40;;;;;;2566812;53;20978;-70
2021/11/29 06:30:24;;;;;;;16.02;8.27;;;5.90;72.40;;;;;;2329351;54;20909;-72
2021/11/29 06:32:51;;;;;;;19.10;9.93;;;5.90;72.40;;;;;;2550447;53;21921;-73
2021/11/29 06:35:18;;;;;;;16.62;8.70;;;5.90;72.40;;;;;;2342290;54;20933;-72
2021/11/29 06:37:47;;;;;;;19.08;9.35;;;5.90;72.40;;;;;;2322200;54;20961;-70
2021/11/29 06:40:14;;;;;;;17.48;8.55;;;5.90;72.40;;;;;;2586361;53;21020;-70
2021/11/29 06:42:40;;;;;;;17.58;9.02;;;5.90;72.40;;;;;;2329310;54;21003;-71
2021/11/29 06:45:07;;;;;;;16.90;7.97;;;5.80;72.30;;;;;;2331866;54;21047;-73
2021/11/29 06:47:34;;;;;;;16.00;8.05;;;5.90;72.40;;;;;;2338005;54;21057;-70
2021/11/29 06:50:00;;;;;;;11.77;6.10;;;5.90;72.40;;;;;;2565686;53;21729;-71
2021/11/29 06:52:27;;;;;;;14.63;6.93;;;5.90;72.40;;;;;;2339771;54;20965;-69
2021/11/29 06:54:55;;;;;;;17.25;8.07;;;5.90;72.40;;;;;;2341769;54;21545;-70
2021/11/29 06:57:22;;;;;;;13.50;7.05;;;5.90;72.30;;;;;;2342022;54;21774;-72
2021/11/29 06:59:48;;;;;;;16.02;8.35;;;5.90;72.20;;;;;;2327271;54;20927;-72
2021/11/29 07:02:19;;;;;;;16.48;8.50;;;5.80;72.10;;;;;;2334362;54;20929;-71
2021/11/29 07:04:45;;;;;;;17.15;8.38;;;5.90;72.20;;;;;;2557882;53;20997;-73
2021/11/29 07:07:11;;;;;;;16.35;8.60;;;5.90;72.20;;;;;;2574101;53;21045;-71
2021/11/29 07:09:39;;;;;;;16.60;8.27;;;5.90;72.20;;;;;;2562955;53;20964;-71
2021/11/29 07:12:06;;;;;;;15.57;7.97;;;5.90;72.20;;;;;;2556328;53;21491;-71
2021/11/29 07:14:32;;;;;;;15.57;7.87;;;5.90;72.30;;;;;;2330409;54;20952;-70
2021/11/29 07:16:58;;;;;;;15.02;7.97;;;5.80;72.20;;;;;;2587969;53;21024;-74
2021/11/29 07:19:25;;;;;;;14.10;7.85;;;5.80;72.20;;;;;;2554083;53;20946;-71
2021/11/29 07:21:52;;;;;;;15.75;7.87;;;5.90;72.40;;;;;;2558487;53;20947;-71
2021/11/29 07:24:19;;;;;;;13.50;7.40;;;5.90;72.30;;;;;;2337825;54;20992;-70
2021/11/29 07:26:45;;;;;;;15.70;7.90;;;5.90;72.40;;;;;;2341908;54;21092;-73
2021/11/29 07:29:14;;;;;;;15.23;7.97;;;5.90;72.40;;;;;;2587777;53;20921;-69
2021/11/29 07:31:42;;;;;;;11.75;6.57;;;5.80;72.30;;;;;;2318086;54;20962;-72
2021/11/29 07:34:08;;;;;;;14.30;7.12;;;5.80;72.20;;;;;;2586636;53;20995;-74
2021/11/29 07:36:35;;;;;;;13.52;7.53;;;5.80;72.20;;;;;;2319563;54;21013;-72
2021/11/29 07:39:02;;;;;;;10.55;5.97;;;5.80;72.30;;;;;;2318739;54;20944;-72
2021/11/29 07:41:28;;;;;;;12.32;6.32;;;5.90;72.50;;;;;;2341485;54;21801;-70
2021/11/29 07:43:54;;;;;;;10.93;5.78;;;5.90;72.50;;;;;;2583227;53;21044;-73
2021/11/29 07:46:21;;;;;;;11.80;6.22;;;5.90;72.50;;;;;;2319857;54;21005;-72
2021/11/29 07:48:48;;;;;;;12.48;6.07;;;5.90;72.60;;;;;;2342235;54;20952;-72
2021/11/29 07:51:14;;;;;;;12.23;6.12;;;5.90;72.60;;;;;;2317707;54;21512;-71
2021/11/29 07:53:41;;;;;;;12.50;6.12;;;5.90;72.70;;;;;;2344547;54;20980;-69
2021/11/29 07:56:08;;;;;;;10.63;5.45;;;5.90;72.80;;;;;;2317082;54;21047;-73
2021/11/29 07:58:38;;;;;;;10.07;5.10;;;5.90;72.90;;;;;;2554547;53;21727;-72
2021/11/29 08:01:04;;;;;;;10.90;5.68;;;5.90;72.90;;;;;;2318603;55;20960;-73
2021/11/29 08:03:31;;;;;;;11.18;5.03;;;6.00;73.10;;;;;;2341711;54;20937;-70
2021/11/29 08:05:59;;;;;;;10.82;5.78;;;6.00;73.10;;;;;;2337210;54;21448;-73
2021/11/29 08:08:36;;;;;;;10.85;5.80;;;6.00;73.00;;;;;;2557625;53;20946;-71
2021/11/29 08:11:02;;;;;;;12.02;6.20;;;6.00;72.80;;;;;;2319857;54;21030;-69
2021/11/29 08:13:30;;;;;;;10.15;5.43;;;6.00;72.90;;;;;;2585810;53;20988;-70
2021/11/29 08:15:56;;;;;;;11.60;6.07;;;6.00;72.90;;;;;;2322071;54;20934;-74
2021/11/29 08:18:22;;;;;;;11.20;5.55;;;6.10;73.00;;;;;;2331487;54;20966;-71
2021/11/29 08:20:49;;;;;;;12.75;6.18;;;6.10;73.10;;;;;;2571547;53;20961;-71
2021/11/29 08:23:16;;;;;;;10.18;5.45;;;6.10;73.10;;;;;;2319747;54;20957;-70
2021/11/29 08:25:43;;;;;;;9.65;5.40;;;6.10;73.00;;;;;;2548522;54;21454;-73
2021/11/29 08:28:10;;;;;;;8.63;4.68;;;6.10;72.90;;;;;;2324931;54;20975;-69
2021/11/29 08:30:36;;;;;;;11.02;6.45;;;6.10;72.70;;;;;;2306830;55;20960;-72
2021/11/29 08:33:02;;;;;;;9.85;5.30;;;6.20;72.70;;;;;;2333976;54;20933;-73
2021/11/29 08:35:29;;;;;;;8.63;5.03;;;6.20;72.50;;;;;;2332614;54;20983;-70
2021/11/29 08:37:58;;;;;;;10.63;5.62;;;6.10;72.20;;;;;;2321444;54;21507;-74
2021/11/29 08:40:29;;;;;;;10.45;4.47;;;6.20;72.00;;;;;;2324523;54;21036;-72
2021/11/29 08:42:57;;;;;;;11.60;4.70;;;6.10;71.60;;;;;;2547042;54;21517;-70
2021/11/29 08:45:23;;;;;;;9.32;4.97;;;6.20;71.60;;;;;;2319688;54;20946;-71
2021/11/29 08:47:50;;;;;;;8.07;4.70;;;6.10;71.40;;;;;;2327198;54;21442;-70
2021/11/29 08:50:17;;;;;;;7.25;3.90;;;6.00;71.40;;;;;;2318084;54;20986;-71
2021/11/29 08:52:55;;;;;;;8.25;4.32;;;6.00;71.40;;;;;;2323926;54;20917;-70
2021/11/29 08:55:21;;;;;;;10.15;5.15;;;6.00;71.70;;;;;;2587319;53;20970;-72
2021/11/29 08:57:48;;;;;;;11.15;5.37;;;6.00;72.10;;;;;;2341869;54;20933;-70
2021/11/29 09:00:16;;;;;;;10.15;5.10;;;6.00;72.50;;;;;;2588047;53;20973;-70
2021/11/29 09:02:43;;;;;;;9.20;4.93;;;6.00;72.90;;;;;;2587974;53;20993;-71
2021/11/29 09:05:10;;;;;;;7.43;4.53;;;6.00;73.20;;;;;;2575301;53;21048;-73
2021/11/29 09:07:37;;;;;;;7.50;4.30;;;6.10;73.40;;;;;;2559849;53;21036;-71
2021/11/29 09:10:04;;;;;;;9.23;4.32;;;6.10;73.50;;;;;;2338605;54;21114;-70
2021/11/29 09:12:30;;;;;;;8.85;4.82;;;6.20;73.50;;;;;;2318428;54;21049;-73
2021/11/29 09:14:57;;;;;;;7.53;4.20;;;6.10;73.30;;;;;;2324127;54;20959;-70
2021/11/29 09:17:23;;;;;;;8.27;4.53;;;6.20;73.20;;;;;;2323091;54;21027;-72
2021/11/29 09:19:50;;;;;;;7.55;4.60;;;6.20;73.30;;;;;;2333708;54;21007;-73
2021/11/29 09:25:43;;;;;;;10.48;4.80;;;6.30;73.10;;;;;;2575411;53;20937;-72
2021/11/29 09:28:11;;;;;;;8.43;4.62;;;6.30;73.20;;;;;;2569666;53;20971;-71
2021/11/29 09:30:40;;;;;;;7.32;4.15;;;6.30;73.00;;;;;;2321365;54;21007;-72
2021/11/29 09:33:06;;;;;;;8.77;4.60;;;6.30;72.90;;;;;;2562286;53;21028;-72
2021/11/29 09:35:33;;;;;;;8.77;4.65;;;6.30;72.90;;;;;;2569478;53;20941;-71
2021/11/29 09:37:59;;;;;;;7.30;4.03;;;6.40;72.90;;;;;;2556058;53;21024;-73
2021/11/29 09:40:33;;;;;;;8.25;4.78;;;6.40;73.00;;;;;;2579672;53;20964;-71
2021/11/29 09:43:01;;;;;;;8.95;4.30;;;6.40;73.30;;;;;;2344649;54;20965;-70
2021/11/29 09:45:28;;;;;;;9.48;5.30;;;6.40;73.60;;;;;;2332582;54;20966;-72
2021/11/29 09:47:55;;;;;;;8.25;4.78;;;6.50;74.10;;;;;;2562819;53;20984;-72
2021/11/29 09:50:22;;;;;;;12.23;5.93;;;6.50;74.10;;;;;;2312598;54;20956;-72
2021/11/29 09:52:48;;;;;;;8.85;5.18;;;6.60;74.20;;;;;;2551950;53;21033;-72
2021/11/29 09:55:16;;;;;;;8.63;5.22;;;6.60;74.20;;;;;;2320533;54;20960;-70
2021/11/29 09:57:43;;;;;;;8.35;4.87;;;6.70;74.20;;;;;;2337147;54;21047;-69
2021/11/29 10:00:11;;;;;;;10.27;5.50;;;6.70;74.20;;;;;;2577822;53;21930;-73
2021/11/29 10:02:38;;;;;;;9.85;5.20;;;6.80;75.00;;;;;;2316846;54;21092;-72
2021/11/29 10:05:05;;;;;;;10.82;4.57;;;6.90;75.80;;;;;;2318406;54;21001;-73
2021/11/29 10:07:37;;;;;;;8.73;5.05;;;7.00;75.70;;;;;;2341605;54;20940;-71
2021/11/29 10:10:12;;;;;;;11.02;5.20;;;7.10;75.40;;;;;;2318544;55;21684;-72
2021/11/29 10:12:40;;;;;;;11.65;5.03;;;7.20;75.40;;;;;;2342572;54;20967;-71
2021/11/29 10:15:24;;;;;;;9.50;4.85;;;7.30;75.70;;;;;;2320616;54;21021;-73
2021/11/29 10:18:19;;;;;;;8.55;5.07;;;7.40;75.20;;;;;;2341572;54;20952;-74
2021/11/29 10:21:02;;;;;;;9.13;5.10;;;7.50;74.70;;;;;;2569580;53;20966;-73
2021/11/29 10:23:39;;;;;;;12.20;5.43;;;7.60;74.40;;;;;;2573531;53;20937;-73
2021/11/29 10:26:22;;;;;;;11.25;5.57;;;7.60;73.70;;;;;;2534123;54;21088;-74
2021/11/29 10:28:55;;;;;;;9.52;5.50;;;7.60;73.60;;;;;;2339036;54;20977;-72
2021/11/29 10:31:31;;;;;;;11.48;5.68;;;7.60;73.30;;;;;;2555654;53;20962;-70
2021/11/29 10:34:07;;;;;;;10.07;5.80;;;7.70;73.10;;;;;;2317706;54;21238;-71
2021/11/29 10:36:38;;;;;;;10.25;5.45;;;7.70;72.90;;;;;;2317142;54;21044;-71
2021/11/29 10:39:09;;;;;;;7.40;4.87;;;7.70;72.80;;;;;;2301350;55;20957;-70
2021/11/29 10:41:40;;;;;;;8.77;5.00;;;7.70;72.70;;;;;;2555011;53;20960;-73
2021/11/29 10:44:10;;;;;;;9.30;4.70;;;7.70;72.60;;;;;;2588286;53;20964;-70
2021/11/29 10:46:38;;;;;;;7.80;4.57;;;7.70;72.60;;;;;;2341005;54;20993;-73
2021/11/29 10:49:13;;;;;;;7.97;5.47;;;7.70;72.50;;;;;;2534875;53;20956;-70
2021/11/29 10:51:40;;;;;;;8.02;4.80;;;7.70;72.30;;;;;;2343943;54;21004;-70
2021/11/29 10:54:44;;;;;;;8.25;4.70;;;7.70;72.20;;;;;;2327431;54;21042;-69
2021/11/29 10:57:14;;;;;;;6.82;3.60;;;7.70;71.60;;;;;;2588395;53;21056;-70
2021/11/29 10:59:42;;;;;;;8.52;4.62;;;7.70;72.00;;;;;;2343301;54;21081;-72
2021/11/29 11:02:16;;;;;;;9.82;5.75;;;7.70;72.10;;;;;;2313741;55;21001;-69
2021/11/29 11:04:43;;;;;;;7.45;4.95;;;7.70;71.70;;;;;;2313259;54;20960;-72
2021/11/29 11:07:20;;;;;;;9.90;4.70;;;7.70;71.40;;;;;;2307407;55;21025;-73
2021/11/29 11:09:53;;;;;;;7.25;4.57;;;7.70;71.10;;;;;;2327377;54;21917;-70
2021/11/29 11:12:20;;;;;;;8.35;4.37;;;7.60;71.20;;;;;;2318839;54;20999;-69
2021/11/29 11:14:55;;;;;;;6.82;4.32;;;7.60;71.40;;;;;;2541166;54;21084;-69
2021/11/29 11:17:32;;;;;;;7.72;4.30;;;7.60;71.50;;;;;;2322580;54;21013;-72
2021/11/29 11:20:03;;;;;;;8.68;4.72;;;7.60;71.70;;;;;;2566559;53;20952;-71
2021/11/29 11:22:45;;;;;;;9.50;5.65;;;7.60;71.70;;;;;;2575785;53;20979;-72
2021/11/29 11:25:29;;;;;;;8.32;5.18;;;7.60;71.50;;;;;;2341269;54;21591;-69
2021/11/29 11:28:00;;;;;;;8.05;5.15;;;7.60;71.70;;;;;;2335813;54;21452;-73
2021/11/29 11:30:31;;;;;;;8.48;5.25;;;7.70;71.90;;;;;;2588064;53;21048;-72
2021/11/29 11:33:02;;;;;;;9.50;5.40;;;7.70;72.10;;;;;;2341882;54;20965;-70
2021/11/29 11:35:31;;;;;;;9.13;5.25;;;7.70;72.20;;;;;;2331026;54;21018;-70
2021/11/29 11:38:03;;;;;;;10.50;5.28;;;7.70;72.30;;;;;;2564354;53;21441;-69
2021/11/29 11:40:38;;;;;;;9.32;5.40;;;7.70;72.40;;;;;;2318079;54;20990;-69
2021/11/29 11:43:07;;;;;;;13.25;7.22;;;7.80;72.60;;;;;;2321818;53;20970;-72
2021/11/29 11:45:46;;;;;;;12.32;5.97;;;7.80;72.90;;;;;;2426259;54;2234468;-70
2021/11/29 11:48:12;;;;;;;8.55;5.30;;;7.90;72.90;;;;;;2308137;54;21561;-71
2021/11/29 11:50:47;;;;;;;9.20;5.18;;;7.90;73.30;;;;;;2297126;54;20909;-74
2021/11/29 11:53:13;;;;;;;8.48;5.05;;;8.00;73.30;;;;;;2578467;53;21985;-70
2021/11/29 11:55:47;;;;;;;6.82;4.15;;;8.00;73.00;;;;;;2582239;53;20981;-71
2021/11/29 11:58:21;;;;;;;7.60;5.00;;;8.00;72.40;;;;;;2341209;54;21060;-73
2021/11/29 12:00:51;;;;;;;8.57;4.82;;;8.10;72.60;;;;;;2321479;54;21041;-71
2021/11/29 12:04:18;;;;;;;9.88;5.47;;;8.10;72.50;;;;;;2588658;53;20949;-69
2021/11/29 12:06:48;;;;;;;8.65;4.57;;;8.20;71.50;;;;;;2315577;54;20925;-71
2021/11/29 12:09:15;;;;;;;8.70;5.10;;;8.10;72.30;;;;;;2561189;53;21032;-73
2021/11/29 12:11:44;;;;;;;8.35;4.55;;;8.10;72.10;;;;;;2332847;54;21032;-73
2021/11/29 12:15:12;;;;;;;6.75;4.20;;;8.10;71.80;;;;;;2558924;53;21038;-70
2021/11/29 12:17:47;;;;;;;7.50;4.15;;;8.10;71.60;;;;;;2332174;54;20997;-70
2021/11/29 12:20:19;;;;;;;8.13;3.87;;;8.10;71.10;;;;;;2313703;54;21024;-71
2021/11/29 12:22:45;;;;;;;7.32;3.85;;;8.10;71.30;;;;;;2576401;53;20929;-71
2021/11/29 12:25:22;;;;;;;6.57;4.28;;;8.10;71.10;;;;;;2339220;54;20965;-71
2021/11/29 12:28:04;;;;;;;8.77;4.50;;;8.00;70.40;;;;;;2322622;54;21001;-72
2021/11/29 12:30:33;;;;;;;10.07;4.28;;;8.00;70.30;;;;;;2327563;54;20958;-72
2021/11/29 12:33:04;;;;;;;5.47;3.47;;;7.90;70.10;;;;;;2328735;54;21394;-72
2021/11/29 12:35:58;;;;;;;6.30;3.67;;;7.90;70.30;;;;;;2335244;54;21071;-70
2021/11/29 12:38:24;;;;;;;6.65;4.00;;;7.80;69.60;;;;;;2314126;54;20963;-71
2021/11/29 12:41:05;;;;;;;7.68;3.85;;;7.70;70.00;;;;;;2314606;54;21472;-71
2021/11/29 12:43:37;;;;;;;8.13;3.97;;;7.70;69.70;;;;;;2314699;54;21010;-74
2021/11/29 12:46:20;;;;;;;7.80;4.23;;;7.70;70.00;;;;;;2311650;53;21869;-72
2021/11/29 12:48:47;;;;;;;7.80;3.92;;;7.60;69.60;;;;;;2315653;54;20967;-70
2021/11/29 12:51:13;;;;;;;6.15;3.85;;;7.50;70.00;;;;;;2554832;54;20986;-69
2021/11/29 12:53:40;;;;;;;6.05;3.45;;;7.50;70.00;;;;;;2314692;54;21038;-68
2021/11/29 12:56:18;;;;;;;6.12;3.45;;;7.50;70.10;;;;;;2328870;53;20937;-69
2021/11/29 12:58:55;;;;;;;6.10;3.03;;;7.40;70.10;;;;;;2326601;54;20977;-72
2021/11/29 13:01:21;;;;;;;9.25;3.47;;;7.40;70.40;;;;;;2300909;54;20950;-72
2021/11/29 13:03:52;;;;;;;6.15;3.42;;;7.40;70.90;;;;;;2309962;54;20965;-70
2021/11/29 13:06:21;;;;;;;5.62;3.28;;;7.40;70.90;;;;;;2551457;53;20975;-73
2021/11/29 13:08:51;;;;;;;5.95;3.12;;;7.30;70.90;;;;;;2314507;54;20942;-71